Terminal Aerodrome Forecast
Issued by NWS Raleigh/Durham, NC

Current Version | Previous Version | Text Only | Print | Product List | Glossary On
Versions: 1 2 3 4 5 6 7 8 9 10 11 12
000
FTUS42 KRAH 182333
TAFFAY
TAF
KFAY 182333Z 1900/1924 02009KT P6SM BKN090 OVC250
     FM190100 03010KT P6SM -RA OVC025
     FM190500 03011KT 5SM -RA BR OVC007
     FM191000 02012G22KT 2SM -RA BR OVC004
     FM192200 05012G22KT 4SM -RA BR SCT007 OVC012=

USA.gov is the U.S. government's official web portal to all federal, state and local government web resources and services.